Current Weather

Fulton County

Rochester, Indiana (KRCR)

Report from: Monday, June 24, 2024 4:55 PM EDT
Current time: Tuesday, June 25, 2024 4:52 AM EDT

Nearby weather – Weather history – Daily summaries
Weather forecast

Temperature29.0°C (84.2°F)
Heat index29.4°C (84.9°F)
Dew point16.0°C (60.8°F)
Winds 6 kts (3.1 m/s, 6.9 mph) West-Northwest (300°)
Visibility10 mi. (16.1 km)
Clouds Few clouds 6,000 ft. (1,829 m)
Few clouds 7,000 ft. (2,134 m)
Altimeter29.97 in.Hg (1015 mB)
Relative humidity45 %
Density altitude1,803 ft. (550 m)
Remarks Fully automated report
Automated weather observing station with precipitation discriminator
Flight conditions Visual Meteorological Conditions
Raw dataKRCR 242055Z AUTO 30006KT 10SM FEW060 FEW070 29/16 A2997 RMK AO2
An unhandled exception has occurred. See browser dev tools for details. Reload 🗙